createdAt,value
2022-12-25T00:01:17.360Z,12.13
2022-12-25T00:04:00.520Z,12.03
2022-12-25T00:06:43.736Z,11.40
2022-12-25T00:09:28.274Z,11.83
2022-12-25T00:12:11.306Z,12.53
2022-12-25T00:14:54.357Z,12.10
2022-12-25T00:17:37.446Z,11.57
2022-12-25T00:20:20.847Z,12.20
2022-12-25T00:23:03.791Z,12.60
2022-12-25T00:25:48.202Z,11.60
2022-12-25T00:28:31.210Z,12.33
2022-12-25T00:31:16.784Z,12.17
2022-12-25T00:33:59.831Z,12.37
2022-12-25T00:36:42.947Z,11.37
2022-12-25T00:39:26.611Z,11.27
2022-12-25T00:42:21.441Z,11.80
2022-12-25T00:45:05.860Z,12.17
2022-12-25T00:47:48.897Z,13.40
2022-12-25T00:50:31.919Z,12.23
2022-12-25T00:53:14.913Z,11.27
2022-12-25T00:55:59.134Z,12.50
2022-12-25T00:58:44.003Z,11.17
2022-12-25T01:01:27.093Z,12.37
2022-12-25T01:04:11.616Z,11.90
2022-12-25T01:06:54.609Z,11.60
2022-12-25T01:09:55.186Z,12.53
2022-12-25T01:12:41.020Z,10.50
2022-12-25T01:15:25.712Z,11.03
2022-12-25T01:18:12.714Z,11.17
2022-12-25T01:20:55.982Z,11.10
2022-12-25T01:23:39.565Z,11.03
2022-12-25T01:26:25.563Z,11.60
2022-12-25T01:29:08.589Z,10.30
2022-12-25T01:31:53.041Z,10.60
2022-12-25T01:34:36.630Z,9.80
2022-12-25T01:37:19.961Z,11.07
2022-12-25T01:40:02.975Z,11.17
2022-12-25T01:42:46.013Z,10.90
2022-12-25T01:45:38.879Z,11.13
2022-12-25T01:48:27.271Z,9.93
2022-12-25T01:51:23.006Z,10.93
2022-12-25T01:54:09.478Z,11.17
2022-12-25T01:56:55.336Z,11.17
2022-12-25T01:59:38.495Z,11.47
2022-12-25T02:02:22.399Z,10.80
2022-12-25T02:05:11.492Z,10.70
2022-12-25T02:07:55.875Z,10.40
2022-12-25T02:10:39.978Z,10.80
2022-12-25T02:13:23.722Z,11.13
2022-12-25T02:16:14.427Z,11.33
2022-12-25T02:19:03.189Z,10.70
2022-12-25T02:22:02.563Z,11.00
2022-12-25T02:25:08.372Z,10.53
2022-12-25T02:28:08.601Z,10.37
2022-12-25T02:30:57.742Z,10.60
2022-12-25T02:34:05.726Z,11.90
2022-12-25T02:36:53.873Z,11.27
2022-12-25T02:39:59.667Z,11.07
2022-12-25T02:43:06.228Z,10.37
2022-12-25T02:46:26.545Z,10.23
2022-12-25T02:49:30.685Z,10.93
2022-12-25T02:52:37.874Z,10.83
2022-12-25T02:55:41.281Z,11.90
2022-12-25T02:58:45.181Z,11.23
2022-12-25T03:01:51.948Z,10.83
2022-12-25T03:04:52.978Z,11.07
2022-12-25T03:07:40.996Z,10.60
2022-12-25T03:10:42.014Z,11.37
2022-12-25T03:13:30.286Z,11.10
2022-12-25T03:16:30.833Z,10.97
2022-12-25T03:19:29.135Z,10.63
2022-12-25T03:22:33.808Z,10.23
2022-12-25T03:25:36.425Z,10.80
2022-12-25T03:28:19.602Z,10.60
2022-12-25T03:31:11.724Z,11.63
2022-12-25T03:34:34.410Z,10.23
2022-12-25T03:38:01.320Z,11.47
2022-12-25T03:41:14.968Z,10.70
2022-12-25T03:44:23.459Z,12.03
2022-12-25T03:47:29.764Z,11.63
2022-12-25T03:50:36.130Z,11.00
2022-12-25T03:53:43.365Z,12.13
2022-12-25T03:56:45.460Z,11.30
2022-12-25T03:59:46.079Z,10.33
2022-12-25T04:02:46.652Z,10.80
2022-12-25T04:05:47.237Z,10.70
2022-12-25T04:08:50.079Z,11.97
2022-12-25T04:11:50.540Z,12.43
2022-12-25T04:14:50.731Z,12.13
2022-12-25T04:17:51.251Z,10.93
2022-12-25T04:20:51.540Z,11.90
2022-12-25T04:24:08.142Z,10.17
2022-12-25T04:27:08.336Z,11.17
2022-12-25T04:30:08.544Z,11.73
2022-12-25T04:33:08.879Z,12.13
2022-12-25T04:36:11.700Z,11.57
2022-12-25T04:38:56.092Z,10.97
2022-12-25T04:41:39.199Z,11.10
2022-12-25T04:44:22.241Z,10.97
2022-12-25T04:47:10.880Z,11.77
2022-12-25T04:49:54.649Z,11.97
2022-12-25T04:52:38.504Z,11.53
2022-12-25T04:55:23.122Z,12.40
2022-12-25T04:58:06.377Z,11.77
2022-12-25T05:00:49.468Z,10.57
2022-12-25T05:03:33.830Z,11.13
2022-12-25T05:06:17.402Z,11.47
2022-12-25T05:09:00.465Z,12.47
2022-12-25T05:11:44.920Z,11.20
2022-12-25T05:14:28.083Z,10.47
2022-12-25T05:17:11.118Z,11.60
2022-12-25T05:19:54.175Z,10.80
2022-12-25T05:22:37.217Z,10.53
2022-12-25T05:25:20.307Z,11.77
2022-12-25T05:28:04.842Z,11.60
2022-12-25T05:30:47.897Z,10.97
2022-12-25T05:33:31.058Z,11.23
2022-12-25T05:36:14.490Z,10.67
2022-12-25T05:38:57.581Z,10.50
2022-12-25T05:41:40.676Z,10.67
2022-12-25T05:44:25.404Z,9.87
2022-12-25T05:47:08.444Z,15.60
2022-12-25T05:49:54.413Z,10.50
2022-12-25T05:52:37.678Z,9.23
2022-12-25T05:55:20.959Z,10.03
2022-12-25T05:58:04.164Z,10.73
2022-12-25T06:00:48.697Z,8.50
2022-12-25T06:03:31.832Z,9.17
2022-12-25T06:06:15.407Z,10.47
2022-12-25T06:08:58.440Z,9.37
2022-12-25T06:11:41.655Z,9.13
2022-12-25T06:14:24.736Z,9.40
2022-12-25T06:17:09.213Z,8.53
2022-12-25T06:19:52.246Z,8.17
2022-12-25T06:22:36.060Z,9.30
2022-12-25T06:25:19.280Z,9.20
2022-12-25T06:28:02.375Z,8.60
2022-12-25T06:30:45.665Z,9.33
2022-12-25T06:33:30.192Z,9.20
2022-12-25T06:36:16.230Z,8.77
2022-12-25T06:39:02.057Z,8.70
2022-12-25T06:41:45.159Z,7.97
2022-12-25T06:44:28.458Z,10.20
2022-12-25T06:47:12.057Z,9.80
2022-12-25T06:49:56.497Z,12.80
2022-12-25T06:52:40.987Z,14.00
2022-12-25T06:55:23.999Z,13.97
2022-12-25T06:58:09.939Z,14.03
2022-12-25T07:00:52.968Z,14.70
2022-12-25T07:03:35.990Z,13.80
2022-12-25T07:06:20.579Z,15.40
2022-12-25T07:09:03.803Z,13.33
2022-12-25T07:11:46.985Z,13.60
2022-12-25T07:14:30.063Z,12.53
2022-12-25T07:17:13.197Z,13.10
2022-12-25T07:19:56.760Z,12.00
2022-12-25T07:22:41.355Z,12.03
2022-12-25T07:25:24.472Z,11.83
2022-12-25T07:28:07.701Z,11.40
2022-12-25T07:30:50.853Z,11.13
2022-12-25T07:33:34.267Z,10.40
2022-12-25T07:36:17.361Z,10.07
2022-12-25T07:39:01.863Z,10.03
2022-12-25T07:41:45.282Z,8.63
2022-12-25T07:44:28.354Z,6.77
2022-12-25T07:47:11.615Z,5.20
2022-12-25T07:49:54.603Z,7.53
2022-12-25T07:52:43.587Z,6.50
2022-12-25T07:55:28.639Z,5.03
2022-12-25T07:58:12.045Z,4.90
2022-12-25T08:00:55.284Z,5.47
2022-12-25T08:03:38.851Z,4.63
2022-12-25T08:06:23.454Z,4.60
2022-12-25T08:09:09.016Z,4.20
2022-12-25T08:11:53.542Z,3.93
2022-12-25T08:14:36.634Z,4.40
2022-12-25T08:17:19.813Z,4.03
2022-12-25T08:20:02.900Z,4.17
2022-12-25T08:22:47.262Z,4.83
2022-12-25T08:25:32.063Z,4.60
2022-12-25T08:28:16.587Z,4.57
2022-12-25T08:30:59.710Z,4.17
2022-12-25T08:33:43.020Z,3.93
2022-12-25T08:36:26.860Z,3.90
2022-12-25T08:39:10.294Z,3.87
2022-12-25T08:41:53.413Z,4.43
2022-12-25T08:44:37.959Z,4.10
2022-12-25T08:47:21.065Z,4.30
2022-12-25T08:50:04.265Z,4.30
2022-12-25T08:52:47.374Z,4.17
2022-12-25T08:55:30.893Z,4.43
2022-12-25T08:58:14.751Z,4.50
2022-12-25T09:01:00.270Z,4.53
2022-12-25T09:03:43.686Z,4.57
2022-12-25T09:06:26.909Z,4.50
2022-12-25T09:09:10.068Z,4.07
2022-12-25T09:11:53.310Z,4.23
2022-12-25T09:14:36.348Z,4.40
2022-12-25T09:17:20.875Z,5.30
2022-12-25T09:20:04.142Z,5.30
2022-12-25T09:22:47.234Z,5.10
2022-12-25T09:25:30.365Z,5.00
2022-12-25T09:28:13.488Z,5.20
2022-12-25T09:30:57.053Z,5.70
2022-12-25T09:33:44.144Z,5.80
2022-12-25T09:36:27.286Z,5.77
2022-12-25T09:39:10.391Z,6.70
2022-12-25T09:41:57.512Z,8.50
2022-12-25T09:44:45.785Z,6.30
2022-12-25T09:47:33.260Z,5.70
2022-12-25T09:50:24.978Z,5.47
2022-12-25T09:53:16.554Z,5.73
2022-12-25T09:56:05.347Z,5.63
2022-12-25T09:58:48.971Z,6.00
2022-12-25T10:01:37.635Z,5.40
2022-12-25T10:04:43.405Z,5.33
2022-12-25T10:07:40.552Z,5.60
2022-12-25T10:10:38.430Z,5.33
2022-12-25T10:13:54.106Z,4.97
2022-12-25T10:16:48.098Z,5.03
2022-12-25T10:19:46.204Z,4.80
2022-12-25T10:22:35.835Z,6.00
2022-12-25T10:25:22.042Z,6.20
2022-12-25T10:28:13.098Z,8.20
2022-12-25T10:31:02.396Z,6.23
2022-12-25T10:33:45.635Z,10.33
2022-12-25T10:36:30.645Z,5.57
2022-12-25T10:39:18.600Z,5.50
2022-12-25T10:42:21.339Z,5.70
2022-12-25T10:45:09.186Z,4.83
2022-12-25T10:48:07.377Z,4.90
2022-12-25T10:50:51.704Z,5.40
2022-12-25T10:53:40.877Z,5.37
2022-12-25T10:56:25.972Z,5.57
2022-12-25T10:59:13.184Z,4.97
2022-12-25T11:01:57.379Z,4.77
2022-12-25T11:04:40.652Z,4.83
2022-12-25T11:07:26.806Z,4.80
2022-12-25T11:10:23.292Z,4.87
2022-12-25T11:13:09.913Z,5.03
2022-12-25T11:16:04.667Z,4.93
2022-12-25T11:18:50.411Z,4.70
2022-12-25T11:21:35.244Z,5.53
2022-12-25T11:24:21.239Z,4.97
2022-12-25T11:27:08.156Z,4.90
2022-12-25T11:29:56.143Z,5.73
2022-12-25T11:32:47.587Z,5.10
2022-12-25T11:35:35.666Z,4.57
2022-12-25T11:38:19.068Z,4.20
2022-12-25T11:41:06.053Z,4.80
2022-12-25T11:43:55.004Z,4.60
2022-12-25T11:46:44.386Z,4.50
2022-12-25T11:49:27.570Z,4.67
2022-12-25T11:52:14.067Z,4.50
2022-12-25T11:55:04.196Z,4.60
2022-12-25T11:57:51.408Z,4.87
2022-12-25T12:00:36.858Z,5.40
2022-12-25T12:03:27.187Z,5.63
2022-12-25T12:06:17.426Z,5.50
2022-12-25T12:09:16.113Z,5.60
2022-12-25T12:12:07.299Z,6.50
2022-12-25T12:14:57.201Z,6.00
2022-12-25T12:17:40.360Z,6.60
2022-12-25T12:20:33.312Z,5.93
2022-12-25T12:23:18.068Z,5.77
2022-12-25T12:26:01.674Z,5.70
2022-12-25T12:28:47.888Z,6.13
2022-12-25T12:31:40.987Z,6.50
2022-12-25T12:34:29.634Z,6.13
2022-12-25T12:37:24.656Z,7.73
2022-12-25T12:40:23.221Z,6.63
2022-12-25T12:43:08.405Z,6.20
2022-12-25T12:45:56.836Z,7.20
2022-12-25T12:48:42.827Z,6.53
2022-12-25T12:51:31.728Z,7.07
2022-12-25T12:54:24.022Z,7.13
2022-12-25T12:57:23.167Z,7.53
2022-12-25T13:00:11.014Z,7.73
2022-12-25T13:03:25.838Z,7.20
2022-12-25T13:06:15.154Z,7.53
2022-12-25T13:09:10.636Z,7.50
2022-12-25T13:11:56.012Z,8.93
2022-12-25T13:14:46.588Z,8.43
2022-12-25T13:17:30.964Z,8.63
2022-12-25T13:20:23.710Z,7.57
2022-12-25T13:23:15.675Z,8.53
2022-12-25T13:26:01.641Z,7.37
2022-12-25T13:28:48.158Z,6.97
2022-12-25T13:31:32.251Z,8.17
2022-12-25T13:34:24.793Z,7.77
2022-12-25T13:37:10.249Z,9.63
2022-12-25T13:39:55.923Z,7.87
2022-12-25T13:42:40.597Z,7.43
2022-12-25T13:45:27.319Z,8.37
2022-12-25T13:48:16.762Z,7.93
2022-12-25T13:51:02.251Z,8.40
2022-12-25T13:53:45.693Z,7.60
2022-12-25T13:56:28.726Z,9.00
2022-12-25T13:59:17.409Z,9.23
2022-12-25T14:02:02.331Z,8.17
2022-12-25T14:04:46.350Z,7.83
2022-12-25T14:07:29.454Z,9.93
2022-12-25T14:10:14.395Z,8.43
2022-12-25T14:13:01.083Z,8.27
2022-12-25T14:15:46.335Z,7.27
2022-12-25T14:18:31.423Z,8.70
2022-12-25T14:21:23.686Z,8.30
2022-12-25T14:24:15.028Z,7.90
2022-12-25T14:27:00.465Z,7.20
2022-12-25T14:29:46.882Z,9.50
2022-12-25T14:32:32.604Z,8.23
2022-12-25T14:35:23.359Z,8.30
2022-12-25T14:38:07.750Z,8.40
2022-12-25T14:41:00.466Z,8.60
2022-12-25T14:43:53.548Z,9.13
2022-12-25T14:46:37.309Z,8.57
2022-12-25T14:49:25.859Z,8.03
2022-12-25T14:52:18.436Z,7.30
2022-12-25T14:55:03.416Z,9.40
2022-12-25T14:57:49.940Z,14.77
2022-12-25T15:00:35.856Z,9.27
2022-12-25T15:03:24.330Z,8.57
2022-12-25T15:06:19.205Z,9.47
2022-12-25T15:09:07.219Z,9.53
2022-12-25T15:11:50.567Z,10.00
2022-12-25T15:14:36.467Z,8.67
2022-12-25T15:17:27.984Z,9.40
2022-12-25T15:20:13.841Z,9.10
2022-12-25T15:23:18.428Z,8.90
2022-12-25T15:26:01.448Z,8.17
2022-12-25T15:28:44.729Z,7.70
2022-12-25T15:31:30.438Z,8.67
2022-12-25T15:34:20.534Z,9.53
2022-12-25T15:37:03.622Z,8.60
2022-12-25T15:39:46.971Z,8.77
2022-12-25T15:42:34.130Z,9.60
2022-12-25T15:45:21.492Z,8.43
2022-12-25T15:48:04.601Z,8.43
2022-12-25T15:51:00.940Z,9.20
2022-12-25T15:53:44.174Z,10.33
2022-12-25T15:56:28.281Z,9.20
2022-12-25T15:59:14.408Z,8.73
2022-12-25T16:01:59.309Z,9.70
2022-12-25T16:04:42.667Z,9.80
2022-12-25T16:07:27.771Z,10.17
2022-12-25T16:10:15.985Z,8.43
2022-12-25T16:12:59.119Z,9.10
2022-12-25T16:15:45.105Z,10.03
2022-12-25T16:18:29.995Z,8.43
2022-12-25T16:21:15.656Z,9.00
2022-12-25T16:24:00.088Z,7.73
2022-12-25T16:26:43.573Z,10.20
2022-12-25T16:29:26.880Z,9.17
2022-12-25T16:32:12.886Z,9.13
2022-12-25T16:34:56.333Z,8.43
2022-12-25T16:37:40.828Z,8.90
2022-12-25T16:40:23.990Z,9.03
2022-12-25T16:43:07.284Z,9.87
2022-12-25T16:45:50.442Z,8.50
2022-12-25T16:48:34.989Z,9.03
2022-12-25T16:51:20.093Z,9.00
2022-12-25T16:54:03.222Z,9.67
2022-12-25T16:56:46.344Z,8.57
2022-12-25T16:59:29.745Z,8.50
2022-12-25T17:02:16.605Z,9.30
2022-12-25T17:05:01.272Z,9.57
2022-12-25T17:07:49.125Z,9.37
2022-12-25T17:10:32.584Z,9.17
2022-12-25T17:13:16.138Z,9.33
2022-12-25T17:15:59.353Z,9.80
2022-12-25T17:18:42.504Z,9.27
2022-12-25T17:21:27.603Z,9.80
2022-12-25T17:24:11.217Z,9.77
2022-12-25T17:26:54.478Z,9.47
2022-12-25T17:29:39.089Z,26.07
2022-12-25T17:32:22.108Z,26.13
2022-12-25T17:35:05.620Z,27.70
2022-12-25T17:37:50.082Z,28.00
2022-12-25T17:40:33.139Z,25.63
2022-12-25T17:43:20.815Z,24.10
2022-12-25T17:46:07.168Z,22.00
2022-12-25T17:48:51.139Z,18.53
2022-12-25T17:51:34.165Z,17.73
2022-12-25T17:54:18.678Z,17.20
2022-12-25T17:57:01.860Z,16.20
2022-12-25T17:59:45.110Z,15.60
2022-12-25T18:02:30.022Z,16.80
2022-12-25T18:05:13.315Z,17.03
2022-12-25T18:07:56.581Z,16.70
2022-12-25T18:10:42.932Z,15.23
2022-12-25T18:13:26.024Z,15.80
2022-12-25T18:16:09.676Z,16.17
2022-12-25T18:18:53.808Z,15.73
2022-12-25T18:21:36.952Z,15.77
2022-12-25T18:24:19.988Z,16.07
2022-12-25T18:27:04.488Z,16.10
2022-12-25T18:29:47.963Z,16.73
2022-12-25T18:32:31.013Z,15.90
2022-12-25T18:35:14.070Z,15.77
2022-12-25T18:37:57.605Z,16.50
2022-12-25T18:40:43.170Z,17.67
2022-12-25T18:43:54.195Z,19.80
2022-12-25T18:46:31.558Z,20.60
2022-12-25T18:49:14.721Z,20.27
2022-12-25T18:52:49.551Z,18.80
2022-12-25T18:55:01.035Z,19.70
2022-12-25T18:57:44.541Z,22.40
2022-12-25T19:00:29.161Z,21.37
2022-12-25T19:03:12.332Z,19.57
2022-12-25T19:05:55.411Z,18.67
2022-12-25T19:08:38.576Z,16.43
2022-12-25T19:11:22.389Z,14.67
2022-12-25T19:14:05.536Z,13.83
2022-12-25T19:16:50.797Z,14.00
2022-12-25T19:19:34.630Z,14.93
2022-12-25T19:22:18.330Z,15.53
2022-12-25T19:25:03.117Z,15.73
2022-12-25T19:27:46.628Z,14.70
2022-12-25T19:30:29.691Z,13.73
2022-12-25T19:33:17.741Z,13.47
2022-12-25T19:36:01.885Z,14.20
2022-12-25T19:38:45.364Z,13.60
2022-12-25T19:41:28.457Z,12.80
2022-12-25T19:44:12.243Z,13.03
2022-12-25T19:46:55.909Z,13.00
2022-12-25T19:49:40.857Z,11.97
2022-12-25T19:52:24.466Z,13.37
2022-12-25T19:55:08.600Z,12.67
2022-12-25T19:57:51.659Z,11.70
2022-12-25T20:00:35.311Z,12.17
2022-12-25T20:03:18.533Z,11.43
2022-12-25T20:06:03.243Z,13.93
2022-12-25T20:08:46.825Z,11.83
2022-12-25T20:11:32.517Z,12.93
2022-12-25T20:14:17.389Z,12.63
2022-12-25T20:17:00.522Z,11.97
2022-12-25T20:19:44.055Z,13.23
2022-12-25T20:22:29.122Z,14.00
2022-12-25T20:25:14.049Z,13.50
2022-12-25T20:27:57.494Z,14.00
2022-12-25T20:30:40.897Z,12.57
2022-12-25T20:33:24.447Z,12.27
2022-12-25T20:36:08.167Z,12.67
2022-12-25T20:38:53.103Z,12.63
2022-12-25T20:41:36.631Z,13.07
2022-12-25T20:44:20.227Z,16.80
2022-12-25T20:47:03.804Z,14.53
2022-12-25T20:49:48.188Z,14.43
2022-12-25T20:52:31.320Z,16.77
2022-12-25T20:55:15.839Z,27.23
2022-12-25T20:57:58.918Z,23.40
2022-12-25T21:00:42.468Z,22.87
2022-12-25T21:03:25.930Z,24.60
2022-12-25T21:06:10.158Z,24.17
2022-12-25T21:08:53.544Z,26.00
2022-12-25T21:11:39.623Z,24.93
2022-12-25T21:14:23.043Z,24.87
2022-12-25T21:17:06.220Z,24.57
2022-12-25T21:19:49.635Z,24.57
2022-12-25T21:22:33.698Z,23.67
2022-12-25T21:25:16.878Z,25.20
2022-12-25T21:28:01.513Z,24.23
2022-12-25T21:30:44.828Z,22.40
2022-12-25T21:33:45.545Z,22.37
2022-12-25T21:36:30.117Z,26.20
2022-12-25T21:39:14.350Z,26.50
2022-12-25T21:41:57.444Z,26.80
2022-12-25T21:44:41.881Z,25.73
2022-12-25T21:47:24.922Z,25.90
2022-12-25T21:50:25.970Z,23.50
2022-12-25T21:53:09.330Z,23.47
2022-12-25T21:56:00.693Z,19.80
2022-12-25T21:58:43.845Z,18.87
2022-12-25T22:01:28.495Z,13.70
2022-12-25T22:04:12.303Z,13.63
2022-12-25T22:07:09.185Z,15.07
2022-12-25T22:09:52.857Z,15.93
2022-12-25T22:12:53.165Z,13.67
2022-12-25T22:15:53.488Z,12.47
2022-12-25T22:18:55.683Z,13.57
2022-12-25T22:21:38.795Z,13.07
2022-12-25T22:24:21.820Z,11.70
2022-12-25T22:27:05.214Z,12.67
2022-12-25T22:29:48.665Z,11.97
2022-12-25T22:32:31.723Z,11.53
2022-12-25T22:35:16.396Z,12.80
2022-12-25T22:37:59.408Z,11.57
2022-12-25T22:40:42.418Z,12.60
2022-12-25T22:43:50.458Z,11.73
2022-12-25T22:46:29.136Z,13.53
2022-12-25T22:49:12.207Z,11.67
2022-12-25T22:51:56.906Z,11.77
2022-12-25T22:54:40.117Z,13.20
2022-12-25T22:57:23.108Z,12.83
2022-12-25T23:00:08.927Z,11.93
2022-12-25T23:02:52.164Z,11.03
2022-12-25T23:05:35.287Z,11.83
2022-12-25T23:08:19.683Z,11.70
2022-12-25T23:11:03.499Z,14.27
2022-12-25T23:14:03.328Z,12.43
2022-12-25T23:16:46.473Z,11.80
2022-12-25T23:19:46.975Z,11.80
2022-12-25T23:22:47.387Z,12.13
2022-12-25T23:25:49.370Z,11.80
2022-12-25T23:28:49.640Z,12.23
2022-12-25T23:31:35.093Z,15.70
2022-12-25T23:34:18.111Z,20.27
2022-12-25T23:37:01.174Z,19.23
2022-12-25T23:39:44.379Z,26.27
2022-12-25T23:42:28.859Z,29.00
2022-12-25T23:45:13.825Z,28.57
2022-12-25T23:47:56.859Z,27.00
2022-12-25T23:50:39.906Z,29.47
2022-12-25T23:53:22.986Z,25.90
2022-12-25T23:56:06.803Z,25.97
2022-12-25T23:58:52.467Z,27.63
